createdAt,value
2023-05-24T00:00:31.104Z,8.20
2023-05-24T00:02:58.995Z,8.20
2023-05-24T00:05:27.058Z,8.10
2023-05-24T00:07:54.818Z,8.00
2023-05-24T00:10:23.602Z,8.00
2023-05-24T00:12:51.518Z,7.90
2023-05-24T00:15:19.518Z,7.80
2023-05-24T00:17:47.446Z,7.70
2023-05-24T00:20:15.353Z,7.60
2023-05-24T00:22:43.410Z,7.70
2023-05-24T00:25:11.351Z,7.60
2023-05-24T00:27:40.919Z,7.60
2023-05-24T00:30:09.220Z,7.70
2023-05-24T00:32:37.182Z,7.70
2023-05-24T00:35:06.516Z,7.70
2023-05-24T00:37:34.985Z,7.70
2023-05-24T00:40:04.483Z,7.60
2023-05-24T00:42:32.088Z,7.50
2023-05-24T00:44:59.992Z,7.60
2023-05-24T00:47:28.517Z,7.60
2023-05-24T00:49:57.242Z,7.60
2023-05-24T00:52:25.500Z,7.60
2023-05-24T00:54:53.619Z,7.60
2023-05-24T00:57:21.813Z,7.70
2023-05-24T00:59:50.203Z,7.70
2023-05-24T01:02:18.653Z,7.60
2023-05-24T01:04:49.162Z,7.60
2023-05-24T01:07:59.492Z,7.60
2023-05-24T01:11:01.668Z,7.50
2023-05-24T01:14:21.298Z,7.30
2023-05-24T01:17:21.301Z,7.20
2023-05-24T01:20:08.025Z,7.00
2023-05-24T01:23:58.772Z,6.90
2023-05-24T01:27:15.623Z,6.80
2023-05-24T01:29:45.461Z,6.70
2023-05-24T01:32:19.982Z,6.60
2023-05-24T01:34:50.010Z,6.50
2023-05-24T01:37:18.149Z,6.50
2023-05-24T01:39:47.017Z,6.50
2023-05-24T01:43:08.228Z,6.50
2023-05-24T01:46:20.338Z,6.40
2023-05-24T01:49:29.809Z,6.40
2023-05-24T01:52:17.145Z,6.40
2023-05-24T01:54:54.930Z,6.30
2023-05-24T01:57:27.019Z,6.30
2023-05-24T01:59:57.768Z,6.20
2023-05-24T02:02:26.355Z,6.20
2023-05-24T02:04:54.584Z,6.20
2023-05-24T02:07:22.354Z,6.20
2023-05-24T02:09:50.218Z,6.20
2023-05-24T02:12:18.241Z,6.20
2023-05-24T02:14:46.078Z,6.30
2023-05-24T02:17:14.744Z,6.20
2023-05-24T02:19:44.197Z,6.20
2023-05-24T02:22:12.911Z,6.10
2023-05-24T02:24:40.633Z,6.10
2023-05-24T02:27:08.500Z,6.10
2023-05-24T02:29:36.485Z,6.10
2023-05-24T02:32:04.675Z,6.00
2023-05-24T02:34:32.464Z,6.10
2023-05-24T02:37:00.310Z,6.20
2023-05-24T02:39:28.474Z,6.40
2023-05-24T02:41:56.416Z,6.40
2023-05-24T02:44:24.330Z,6.30
2023-05-24T02:46:52.016Z,6.30
2023-05-24T02:49:19.862Z,6.30
2023-05-24T02:51:47.917Z,6.40
2023-05-24T02:54:17.843Z,6.50
2023-05-24T02:56:45.694Z,6.50
2023-05-24T02:59:17.783Z,6.40
2023-05-24T03:01:46.116Z,6.30
2023-05-24T03:04:14.062Z,6.30
2023-05-24T03:06:42.162Z,6.30
2023-05-24T03:09:09.982Z,6.20
2023-05-24T03:11:37.776Z,6.10
2023-05-24T03:14:06.695Z,6.10
2023-05-24T03:16:34.681Z,6.10
2023-05-24T03:19:08.364Z,6.10
2023-05-24T03:21:38.316Z,6.10
2023-05-24T03:24:06.849Z,6.10
2023-05-24T03:26:35.439Z,6.10
2023-05-24T03:29:03.253Z,6.00
2023-05-24T03:31:37.182Z,6.10
2023-05-24T03:34:05.249Z,6.10
2023-05-24T03:36:34.783Z,6.10
2023-05-24T03:39:04.744Z,6.10
2023-05-24T03:41:39.809Z,6.10
2023-05-24T03:44:07.916Z,6.10
2023-05-24T03:46:36.956Z,6.10
2023-05-24T03:49:05.006Z,6.20
2023-05-24T03:51:33.066Z,6.20
2023-05-24T03:54:00.914Z,6.40
2023-05-24T03:56:28.848Z,6.40
2023-05-24T03:59:00.887Z,6.50
2023-05-24T04:01:33.896Z,6.50
2023-05-24T04:04:06.622Z,6.50
2023-05-24T04:06:36.887Z,6.50
2023-05-24T04:09:06.019Z,6.50
2023-05-24T04:11:33.882Z,6.50
2023-05-24T04:14:01.743Z,6.50
2023-05-24T04:16:34.387Z,6.50
2023-05-24T04:19:06.079Z,6.60
2023-05-24T04:21:36.907Z,6.60
2023-05-24T04:24:07.467Z,6.70
2023-05-24T04:26:37.822Z,6.70
2023-05-24T04:29:07.871Z,6.80
2023-05-24T04:31:36.960Z,6.90
2023-05-24T04:34:07.555Z,7.00
2023-05-24T04:36:36.129Z,7.30
2023-05-24T04:39:05.351Z,7.40
2023-05-24T04:41:35.498Z,7.50
2023-05-24T04:44:03.472Z,7.40
2023-05-24T04:46:32.204Z,7.40
2023-05-24T04:49:00.173Z,7.40
2023-05-24T04:51:28.222Z,7.50
2023-05-24T04:53:56.335Z,7.60
2023-05-24T04:56:24.703Z,7.60
2023-05-24T04:58:52.521Z,7.70
2023-05-24T05:01:20.920Z,7.80
2023-05-24T05:03:48.898Z,7.90
2023-05-24T05:06:17.482Z,8.00
2023-05-24T05:08:45.141Z,8.00
2023-05-24T05:11:15.521Z,8.10
2023-05-24T05:13:43.274Z,8.30
2023-05-24T05:16:11.335Z,8.40
2023-05-24T05:18:39.276Z,8.50
2023-05-24T05:21:07.454Z,8.50
2023-05-24T05:23:36.528Z,8.60
2023-05-24T05:26:04.321Z,8.70
2023-05-24T05:28:32.018Z,8.80
2023-05-24T05:31:00.001Z,8.90
2023-05-24T05:33:27.827Z,9.10
2023-05-24T05:35:55.478Z,9.30
2023-05-24T05:38:23.229Z,9.80
2023-05-24T05:40:51.037Z,10.10
2023-05-24T05:43:18.966Z,10.90
2023-05-24T05:45:46.881Z,11.70
2023-05-24T05:48:14.734Z,12.30
2023-05-24T05:50:42.816Z,12.20
2023-05-24T05:53:10.687Z,13.00
2023-05-24T05:55:38.653Z,13.20
2023-05-24T05:58:06.612Z,13.20
2023-05-24T06:00:34.489Z,12.90
2023-05-24T06:03:02.511Z,11.90
2023-05-24T06:05:30.570Z,11.70
2023-05-24T06:07:58.394Z,11.60
2023-05-24T06:10:26.305Z,12.00
2023-05-24T06:12:54.400Z,13.00
2023-05-24T06:15:23.209Z,13.50
2023-05-24T06:17:52.925Z,13.30
2023-05-24T06:20:21.962Z,13.10
2023-05-24T06:22:50.961Z,13.10
2023-05-24T06:25:21.149Z,12.80
2023-05-24T06:27:49.192Z,13.10
2023-05-24T06:30:17.788Z,13.10
2023-05-24T06:32:45.810Z,13.40
2023-05-24T06:35:13.926Z,13.40
2023-05-24T06:37:41.756Z,13.60
2023-05-24T06:40:10.318Z,13.10
2023-05-24T06:42:40.231Z,14.00
2023-05-24T06:45:09.682Z,14.00
2023-05-24T06:47:37.652Z,12.90
2023-05-24T06:50:07.110Z,12.40
2023-05-24T06:52:35.247Z,12.40
2023-05-24T06:55:03.023Z,12.60
2023-05-24T06:57:30.871Z,13.00
2023-05-24T06:59:58.801Z,12.70
2023-05-24T07:02:28.896Z,12.60
2023-05-24T07:04:57.229Z,12.70
2023-05-24T07:07:25.312Z,13.10
2023-05-24T07:09:53.077Z,13.20
2023-05-24T07:12:21.205Z,13.00
2023-05-24T07:14:49.042Z,13.30
2023-05-24T07:17:16.938Z,13.30
2023-05-24T07:19:44.753Z,13.00
2023-05-24T07:22:12.691Z,13.10
2023-05-24T07:24:40.570Z,13.10
2023-05-24T07:27:08.837Z,14.00
2023-05-24T07:29:37.004Z,13.80
2023-05-24T07:32:08.833Z,13.80
2023-05-24T07:34:36.655Z,13.30
2023-05-24T07:37:04.752Z,13.50
2023-05-24T07:39:32.428Z,14.40
2023-05-24T07:42:00.230Z,14.60
2023-05-24T07:44:28.042Z,14.30
2023-05-24T07:46:56.139Z,14.60
2023-05-24T07:49:24.377Z,15.00
2023-05-24T07:51:53.226Z,15.80
2023-05-24T07:54:22.783Z,16.10
2023-05-24T07:56:53.367Z,15.70
2023-05-24T07:59:24.036Z,14.70
2023-05-24T08:01:53.034Z,14.60
2023-05-24T08:04:20.966Z,15.60
2023-05-24T08:06:48.895Z,15.90
2023-05-24T08:09:16.856Z,16.40
2023-05-24T08:11:44.692Z,15.70
2023-05-24T08:14:12.439Z,14.80
2023-05-24T08:16:40.292Z,14.20
2023-05-24T08:19:08.112Z,13.70
2023-05-24T08:21:35.916Z,13.30
2023-05-24T08:24:05.501Z,13.30
2023-05-24T08:26:36.705Z,13.00
2023-05-24T08:29:06.540Z,12.70
2023-05-24T08:31:34.378Z,12.70
2023-05-24T08:34:03.629Z,13.10
2023-05-24T08:36:31.510Z,13.40
2023-05-24T08:39:00.340Z,13.50
2023-05-24T08:41:29.712Z,13.80
2023-05-24T08:44:02.556Z,13.60
2023-05-24T08:46:32.476Z,13.60
2023-05-24T08:49:03.727Z,14.20
2023-05-24T08:51:33.750Z,14.60
2023-05-24T08:54:04.074Z,14.10
2023-05-24T08:56:33.977Z,13.90
2023-05-24T08:59:01.830Z,14.50
2023-05-24T09:01:34.647Z,15.30
2023-05-24T09:04:06.761Z,16.30
2023-05-24T09:06:35.104Z,16.30
2023-05-24T09:09:05.054Z,15.90
2023-05-24T09:11:35.203Z,15.80
2023-05-24T09:14:04.030Z,15.70
2023-05-24T09:16:32.434Z,15.90
2023-05-24T09:19:00.472Z,15.20
2023-05-24T09:21:29.665Z,15.20
2023-05-24T09:24:01.276Z,15.80
2023-05-24T09:26:30.575Z,15.90
2023-05-24T09:28:58.415Z,16.20
2023-05-24T09:31:39.587Z,15.50
2023-05-24T09:34:17.000Z,14.90
2023-05-24T09:36:48.651Z,14.30
2023-05-24T09:39:20.865Z,14.40
2023-05-24T09:41:57.995Z,14.30
2023-05-24T09:44:30.220Z,14.70
2023-05-24T09:47:09.405Z,14.40
2023-05-24T09:49:40.601Z,14.50
2023-05-24T09:52:08.869Z,14.50
2023-05-24T09:54:37.336Z,14.80
2023-05-24T09:57:07.092Z,15.50
2023-05-24T09:59:35.629Z,15.60
2023-05-24T10:02:12.706Z,15.90
2023-05-24T10:04:41.905Z,16.60
2023-05-24T10:07:12.332Z,17.00
2023-05-24T10:09:41.975Z,16.30
2023-05-24T10:12:09.860Z,15.70
2023-05-24T10:14:39.761Z,15.00
2023-05-24T10:17:08.779Z,14.70
2023-05-24T10:19:38.653Z,14.30
2023-05-24T10:22:10.807Z,14.10
2023-05-24T10:24:50.590Z,14.00
2023-05-24T10:27:26.134Z,13.80
2023-05-24T10:30:35.782Z,13.90
2023-05-24T10:33:12.999Z,14.10
2023-05-24T10:35:43.322Z,13.90
2023-05-24T10:38:12.096Z,13.60
2023-05-24T10:40:43.945Z,13.80
2023-05-24T10:43:12.377Z,14.00
2023-05-24T10:45:48.081Z,13.90
2023-05-24T10:48:16.176Z,14.00
2023-05-24T10:50:45.283Z,14.20
2023-05-24T10:53:23.350Z,14.30
2023-05-24T10:56:10.023Z,14.10
2023-05-24T10:58:58.092Z,14.30
2023-05-24T11:01:35.493Z,13.80
2023-05-24T11:04:18.576Z,14.00
2023-05-24T11:07:09.976Z,14.30
2023-05-24T11:09:48.688Z,14.30
2023-05-24T11:12:23.636Z,14.00
2023-05-24T11:14:54.167Z,14.10
2023-05-24T11:17:24.485Z,14.70
2023-05-24T11:19:56.970Z,15.00
2023-05-24T11:22:27.079Z,15.10
2023-05-24T11:24:55.022Z,15.20
2023-05-24T11:27:24.235Z,15.70
2023-05-24T11:29:54.255Z,16.20
2023-05-24T11:32:24.252Z,16.50
2023-05-24T11:34:52.798Z,16.80
2023-05-24T11:37:31.541Z,16.50
2023-05-24T11:40:10.436Z,16.40
2023-05-24T11:42:39.514Z,15.50
2023-05-24T11:45:11.521Z,15.50
2023-05-24T11:47:40.284Z,15.90
2023-05-24T11:50:09.309Z,15.90
2023-05-24T11:52:41.791Z,15.70
2023-05-24T11:55:17.318Z,15.20
2023-05-24T11:57:59.479Z,15.00
2023-05-24T12:00:28.835Z,15.00
2023-05-24T12:03:05.304Z,15.30
2023-05-24T12:05:34.297Z,15.70
2023-05-24T12:08:13.789Z,16.20
2023-05-24T12:10:44.318Z,16.10
2023-05-24T12:13:27.117Z,16.00
2023-05-24T12:15:57.100Z,16.30
2023-05-24T12:18:27.392Z,16.40
2023-05-24T12:20:55.990Z,16.40
2023-05-24T12:23:29.802Z,16.80
2023-05-24T12:26:07.311Z,16.90
2023-05-24T12:28:39.153Z,16.60
2023-05-24T12:31:08.954Z,15.90
2023-05-24T12:33:37.751Z,15.90
2023-05-24T12:36:07.522Z,15.90
2023-05-24T12:38:35.350Z,15.80
2023-05-24T12:41:13.630Z,15.50
2023-05-24T12:43:44.606Z,15.50
2023-05-24T12:46:13.360Z,15.70
2023-05-24T12:48:41.644Z,15.90
2023-05-24T12:51:09.957Z,16.20
2023-05-24T12:53:37.924Z,16.70
2023-05-24T12:56:06.694Z,17.20
2023-05-24T12:58:34.461Z,17.50
2023-05-24T13:01:02.661Z,17.80
2023-05-24T13:03:30.416Z,17.70
2023-05-24T13:06:00.038Z,17.00
2023-05-24T13:08:31.324Z,16.80
2023-05-24T13:10:59.871Z,16.80
2023-05-24T13:13:28.995Z,16.90
2023-05-24T13:15:57.053Z,17.20
2023-05-24T13:18:26.455Z,17.50
2023-05-24T13:20:54.767Z,17.60
2023-05-24T13:23:23.580Z,17.80
2023-05-24T13:25:51.525Z,17.60
2023-05-24T13:28:19.966Z,17.10
2023-05-24T13:30:50.592Z,16.10
2023-05-24T13:33:18.500Z,15.90
2023-05-24T13:35:46.536Z,16.30
2023-05-24T13:38:14.431Z,16.50
2023-05-24T13:40:42.444Z,16.70
2023-05-24T13:43:10.945Z,16.50
2023-05-24T13:45:39.028Z,16.60
2023-05-24T13:48:07.094Z,16.30
2023-05-24T13:50:37.350Z,16.40
2023-05-24T13:53:08.087Z,16.60
2023-05-24T13:55:38.830Z,16.00
2023-05-24T13:58:06.952Z,15.70
2023-05-24T14:00:36.331Z,15.30
2023-05-24T14:03:06.126Z,15.10
2023-05-24T14:05:35.774Z,15.20
2023-05-24T14:08:07.097Z,15.10
2023-05-24T14:10:37.601Z,15.10
2023-05-24T14:15:39.009Z,14.90
2023-05-24T14:18:08.852Z,14.90
2023-05-24T14:20:40.408Z,14.90
2023-05-24T14:23:10.351Z,15.00
2023-05-24T14:25:38.529Z,15.00
2023-05-24T14:28:08.696Z,15.20
2023-05-24T14:30:38.068Z,15.50
2023-05-24T14:33:11.582Z,15.80
2023-05-24T14:35:40.347Z,15.80
2023-05-24T14:38:11.697Z,15.60
2023-05-24T14:40:41.164Z,15.60
2023-05-24T14:43:11.003Z,15.40
2023-05-24T14:45:42.325Z,15.60
2023-05-24T14:48:12.427Z,15.90
2023-05-24T14:50:42.003Z,16.00
2023-05-24T14:53:12.532Z,16.20
2023-05-24T14:55:44.075Z,16.40
2023-05-24T14:58:13.321Z,16.30
2023-05-24T15:00:44.054Z,16.30
2023-05-24T15:03:15.194Z,16.50
2023-05-24T15:05:43.605Z,16.40
2023-05-24T15:08:12.838Z,16.50
2023-05-24T15:10:45.404Z,16.40
2023-05-24T15:13:22.215Z,16.50
2023-05-24T15:16:01.336Z,16.90
2023-05-24T15:18:33.893Z,17.00
2023-05-24T15:21:07.074Z,16.80
2023-05-24T15:23:39.830Z,16.70
2023-05-24T15:26:16.395Z,16.50
2023-05-24T15:28:46.145Z,16.20
2023-05-24T15:31:15.302Z,16.00
2023-05-24T15:33:44.406Z,15.90
2023-05-24T15:36:14.632Z,15.60
2023-05-24T15:38:44.896Z,15.60
2023-05-24T15:41:13.945Z,15.60
2023-05-24T15:43:43.294Z,15.70
2023-05-24T15:46:13.281Z,16.00
2023-05-24T15:48:46.134Z,16.20
2023-05-24T15:53:52.104Z,16.70
2023-05-24T15:56:26.099Z,16.90
2023-05-24T15:58:55.614Z,16.90
2023-05-24T16:01:25.956Z,16.90
2023-05-24T16:03:55.157Z,17.00
2023-05-24T16:06:27.499Z,16.80
2023-05-24T16:08:57.044Z,16.30
2023-05-24T16:11:26.989Z,16.00
2023-05-24T16:13:54.932Z,16.00
2023-05-24T16:16:23.841Z,16.30
2023-05-24T16:18:51.938Z,16.60
2023-05-24T16:21:20.310Z,16.70
2023-05-24T16:23:49.313Z,17.00
2023-05-24T16:26:17.450Z,16.70
2023-05-24T16:28:45.671Z,16.50
2023-05-24T16:31:13.751Z,16.70
2023-05-24T16:33:41.883Z,16.70
2023-05-24T16:36:09.924Z,16.80
2023-05-24T16:38:38.112Z,16.90
2023-05-24T16:41:06.359Z,16.80
2023-05-24T16:43:34.657Z,16.90
2023-05-24T16:46:02.792Z,16.90
2023-05-24T16:48:31.862Z,16.80
2023-05-24T16:51:01.674Z,16.90
2023-05-24T16:53:30.176Z,16.70
2023-05-24T16:55:58.254Z,16.70
2023-05-24T16:58:28.865Z,16.90
2023-05-24T17:00:57.274Z,16.90
2023-05-24T17:03:29.384Z,17.10
2023-05-24T17:06:04.106Z,16.80
2023-05-24T17:08:38.244Z,16.80
2023-05-24T17:11:07.477Z,16.80
2023-05-24T17:13:35.466Z,16.60
2023-05-24T17:16:04.779Z,16.40
2023-05-24T17:18:32.744Z,16.30
2023-05-24T17:21:04.939Z,16.30
2023-05-24T17:23:39.802Z,16.20
2023-05-24T17:26:14.893Z,16.10
2023-05-24T17:28:46.312Z,16.10
2023-05-24T17:31:18.270Z,16.00
2023-05-24T17:33:46.276Z,16.10
2023-05-24T17:36:14.350Z,16.00
2023-05-24T17:38:42.841Z,15.90
2023-05-24T17:41:10.874Z,15.90
2023-05-24T17:43:40.278Z,15.90
2023-05-24T17:46:09.702Z,16.00
2023-05-24T17:48:42.994Z,15.90
2023-05-24T17:51:11.761Z,15.80
2023-05-24T17:53:43.237Z,15.70
2023-05-24T17:56:11.675Z,15.50
2023-05-24T17:58:40.343Z,15.40
2023-05-24T18:01:12.127Z,15.40
2023-05-24T18:03:41.125Z,15.40
2023-05-24T18:06:09.984Z,15.30
2023-05-24T18:08:43.539Z,15.20
2023-05-24T18:11:13.768Z,15.20
2023-05-24T18:13:43.866Z,15.20
2023-05-24T18:16:13.448Z,15.10
2023-05-24T18:18:41.483Z,15.10
2023-05-24T18:21:10.662Z,15.00
2023-05-24T18:23:39.204Z,15.00
2023-05-24T18:26:12.420Z,15.10
2023-05-24T18:28:42.348Z,15.10
2023-05-24T18:31:10.699Z,15.10
2023-05-24T18:33:38.848Z,15.10
2023-05-24T18:36:07.736Z,15.30
2023-05-24T18:38:37.669Z,15.30
2023-05-24T18:41:09.406Z,15.30
2023-05-24T18:43:37.531Z,15.40
2023-05-24T18:46:05.613Z,15.40
2023-05-24T18:48:33.357Z,15.50
2023-05-24T18:51:01.211Z,15.50
2023-05-24T18:53:28.990Z,15.40
2023-05-24T18:55:56.853Z,15.40
2023-05-24T18:58:24.510Z,15.40
2023-05-24T19:00:52.510Z,15.40
2023-05-24T19:03:22.352Z,15.40
2023-05-24T19:05:50.525Z,15.40
2023-05-24T19:08:18.636Z,15.20
2023-05-24T19:10:46.497Z,15.10
2023-05-24T19:13:15.359Z,15.00
2023-05-24T19:15:43.477Z,14.90
2023-05-24T19:18:11.518Z,14.70
2023-05-24T19:20:39.280Z,14.50
2023-05-24T19:23:07.129Z,14.40
2023-05-24T19:25:42.043Z,14.30
2023-05-24T19:28:11.700Z,14.20
2023-05-24T19:30:39.621Z,14.00
2023-05-24T19:33:07.946Z,13.80
2023-05-24T19:35:36.771Z,13.70
2023-05-24T19:38:04.772Z,13.50
2023-05-24T19:40:32.621Z,13.30
2023-05-24T19:43:00.862Z,13.20
2023-05-24T19:45:28.667Z,13.00
2023-05-24T19:47:57.805Z,12.90
2023-05-24T19:50:29.006Z,12.80
2023-05-24T19:52:58.688Z,12.70
2023-05-24T19:55:26.372Z,12.60
2023-05-24T19:57:54.181Z,12.60
2023-05-24T20:00:22.468Z,12.50
2023-05-24T20:02:50.416Z,12.40
2023-05-24T20:05:18.568Z,12.30
2023-05-24T20:07:46.757Z,12.20
2023-05-24T20:10:14.724Z,12.20
2023-05-24T20:12:42.912Z,12.20
2023-05-24T20:15:16.431Z,12.10
2023-05-24T20:17:48.640Z,12.00
2023-05-24T20:20:16.816Z,12.00
2023-05-24T20:22:44.840Z,12.00
2023-05-24T20:25:12.923Z,12.00
2023-05-24T20:27:44.086Z,12.00
2023-05-24T20:30:13.701Z,12.00
2023-05-24T20:32:41.622Z,12.00
2023-05-24T20:35:10.602Z,12.20
2023-05-24T20:37:38.718Z,12.20
2023-05-24T20:40:08.698Z,12.30
2023-05-24T20:42:36.558Z,12.30
2023-05-24T20:45:05.197Z,12.30
2023-05-24T20:47:33.168Z,12.40
2023-05-24T20:50:01.114Z,12.40
2023-05-24T20:52:28.907Z,12.40
2023-05-24T20:54:56.703Z,12.40
2023-05-24T20:57:24.565Z,12.30
2023-05-24T20:59:52.634Z,12.30
2023-05-24T21:02:20.425Z,12.20
2023-05-24T21:04:48.281Z,12.00
2023-05-24T21:07:16.415Z,11.90
2023-05-24T21:09:44.245Z,11.80
2023-05-24T21:12:15.792Z,11.70
2023-05-24T21:14:45.094Z,11.60
2023-05-24T21:17:13.406Z,11.60
2023-05-24T21:19:42.328Z,11.50
2023-05-24T21:22:10.343Z,11.40
2023-05-24T21:24:38.439Z,11.40
2023-05-24T21:27:06.332Z,11.40
2023-05-24T21:29:38.110Z,11.40
2023-05-24T21:32:06.263Z,11.40
2023-05-24T21:34:34.091Z,11.40
2023-05-24T21:37:02.321Z,11.40
2023-05-24T21:39:30.237Z,11.40
2023-05-24T21:41:58.492Z,11.30
2023-05-24T21:44:26.517Z,11.30
2023-05-24T21:46:54.465Z,11.20
2023-05-24T21:49:22.610Z,11.20
2023-05-24T21:51:50.820Z,11.30
2023-05-24T21:54:20.097Z,11.30
2023-05-24T21:56:48.114Z,11.20
2023-05-24T21:59:16.144Z,11.20
2023-05-24T22:01:43.965Z,11.20
2023-05-24T22:04:12.079Z,11.20
2023-05-24T22:06:41.789Z,11.10
2023-05-24T22:09:13.806Z,11.10
2023-05-24T22:11:41.898Z,11.20
2023-05-24T22:14:10.973Z,11.20
2023-05-24T22:16:39.042Z,11.10
2023-05-24T22:19:16.779Z,11.00
2023-05-24T22:21:52.268Z,10.90
2023-05-24T22:24:20.239Z,10.80
2023-05-24T22:26:48.154Z,10.70
2023-05-24T22:29:16.498Z,10.60
2023-05-24T22:31:44.493Z,10.50
2023-05-24T22:34:13.307Z,10.50
2023-05-24T22:36:41.197Z,10.50
2023-05-24T22:39:10.289Z,10.40
2023-05-24T22:41:38.432Z,10.40
2023-05-24T22:44:06.374Z,10.30
2023-05-24T22:46:34.174Z,10.40
2023-05-24T22:49:03.240Z,10.40
2023-05-24T22:51:31.442Z,10.50
2023-05-24T22:53:59.645Z,10.60
2023-05-24T22:56:27.730Z,10.60
2023-05-24T22:58:56.756Z,10.60
2023-05-24T23:01:25.010Z,10.50
2023-05-24T23:03:52.943Z,10.50
2023-05-24T23:06:21.377Z,10.60
2023-05-24T23:08:50.229Z,10.60
2023-05-24T23:11:18.718Z,10.60
2023-05-24T23:13:46.631Z,10.60
2023-05-24T23:16:18.208Z,10.60
2023-05-24T23:18:47.022Z,10.60
2023-05-24T23:21:15.007Z,10.60
2023-05-24T23:23:44.043Z,10.70
2023-05-24T23:26:12.036Z,10.60
2023-05-24T23:28:39.865Z,10.60
2023-05-24T23:31:09.395Z,10.60
2023-05-24T23:33:37.365Z,10.60
2023-05-24T23:36:06.252Z,10.60
2023-05-24T23:38:34.175Z,10.60
2023-05-24T23:41:02.042Z,10.60
2023-05-24T23:43:31.053Z,10.60
2023-05-24T23:45:58.795Z,10.70
2023-05-24T23:48:26.589Z,10.80
2023-05-24T23:50:54.929Z,10.70
2023-05-24T23:53:22.951Z,10.70
2023-05-24T23:55:50.955Z,10.50
2023-05-24T23:58:18.950Z,10.40
